Time;durP1;ratioP1;P1;durP2;ratioP2;P2;SDS_P1;SDS_P2;PMS_P1;PMS_P2;Temp;Humidity;BMP_temperature;BMP_pressure;BME280_temperature;BME280_humidity;BME280_pressure;Samples;Min_cycle;Max_cycle;Signal;HPM_P1;HPM_P2
2023/06/23 00:02:00;;;;;;;318.57;304.13;;;25.80;90.60;;;;;;5045795;28;20213;-63
2023/06/23 00:04:27;;;;;;;321.83;307.27;;;25.80;90.70;;;;;;5044711;28;20233;-63
2023/06/23 00:06:54;;;;;;;379.10;360.30;;;25.90;90.70;;;;;;5044491;28;20207;-63
2023/06/23 00:09:22;;;;;;;345.03;328.67;;;25.80;90.60;;;;;;5042335;28;20797;-63
2023/06/23 00:11:49;;;;;;;405.67;386.20;;;25.90;90.60;;;;;;5045742;28;20585;-63
2023/06/23 00:14:16;;;;;;;479.40;453.80;;;25.90;90.60;;;;;;5046873;28;20206;-63
2023/06/23 00:16:43;;;;;;;453.10;430.47;;;25.80;90.40;;;;;;5043025;28;20201;-62
2023/06/23 00:19:11;;;;;;;395.07;375.50;;;25.80;90.30;;;;;;5047910;28;20206;-65
2023/06/23 00:21:38;;;;;;;438.83;416.90;;;25.70;90.40;;;;;;5044225;28;20235;-62
2023/06/23 00:24:06;;;;;;;356.17;339.37;;;25.60;90.50;;;;;;5044299;28;20250;-62
2023/06/23 00:26:34;;;;;;;472.77;448.37;;;25.60;90.60;;;;;;5045797;28;20234;-63
2023/06/23 00:29:01;;;;;;;462.20;438.00;;;25.50;90.60;;;;;;5044774;28;20220;-62
2023/06/23 00:31:28;;;;;;;467.97;443.17;;;25.50;90.50;;;;;;5044037;28;20304;-63
2023/06/23 00:33:56;;;;;;;443.97;421.83;;;25.50;90.40;;;;;;5047159;28;20201;-62
2023/06/23 00:36:23;;;;;;;432.50;410.67;;;25.40;90.40;;;;;;5042185;28;20281;-63
2023/06/23 00:38:50;;;;;;;445.27;423.47;;;25.30;90.40;;;;;;5015980;28;20197;-62
2023/06/23 00:41:17;;;;;;;420.87;400.27;;;25.20;90.30;;;;;;5046662;28;20199;-63
2023/06/23 00:43:50;;;;;;;405.67;386.07;;;25.20;90.40;;;;;;5034400;28;20668;-63
2023/06/23 00:46:20;;;;;;;351.70;335.00;;;25.10;90.30;;;;;;5044033;28;20204;-63
2023/06/23 00:48:48;;;;;;;347.43;330.97;;;25.10;90.30;;;;;;5046443;28;20201;-62
2023/06/23 00:51:16;;;;;;;345.97;330.03;;;25.00;90.30;;;;;;5046286;28;20286;-63
2023/06/23 00:53:49;;;;;;;367.30;350.17;;;25.00;90.40;;;;;;5043558;28;20219;-63
2023/06/23 00:56:21;;;;;;;446.10;423.77;;;25.00;90.40;;;;;;5031191;28;20210;-63
2023/06/23 00:58:52;;;;;;;473.10;449.57;;;24.90;90.40;;;;;;5042702;28;20204;-63
2023/06/23 01:01:20;;;;;;;432.00;409.93;;;24.90;90.30;;;;;;5043965;28;20260;-62
2023/06/23 01:03:48;;;;;;;435.37;413.60;;;24.90;90.20;;;;;;5043549;28;20689;-63
2023/06/23 01:06:18;;;;;;;420.90;400.73;;;24.90;90.20;;;;;;5041724;28;20233;-63
2023/06/23 01:08:57;;;;;;;471.07;446.43;;;24.80;90.20;;;;;;5034956;28;20212;-63
2023/06/23 01:12:06;;;;;;;491.70;466.63;;;24.80;90.20;;;;;;5043746;28;20227;-63
2023/06/23 01:14:50;;;;;;;399.77;380.00;;;24.80;90.10;;;;;;5045577;28;20199;-62
2023/06/23 01:17:31;;;;;;;466.17;442.50;;;24.80;90.20;;;;;;5044379;28;20649;-62
2023/06/23 01:20:21;;;;;;;417.67;397.30;;;24.70;90.20;;;;;;5042752;28;20200;-63
2023/06/23 01:23:04;;;;;;;340.33;323.70;;;24.70;90.20;;;;;;5043081;28;20569;-62
2023/06/23 01:25:58;;;;;;;356.40;340.37;;;24.70;90.30;;;;;;5042990;28;20681;-62
2023/06/23 01:28:46;;;;;;;373.17;355.70;;;24.60;90.30;;;;;;5031433;28;20297;-62
2023/06/23 01:31:18;;;;;;;378.43;361.13;;;24.60;90.30;;;;;;5046739;28;20213;-63
2023/06/23 01:33:49;;;;;;;458.23;434.90;;;24.60;90.40;;;;;;5048517;28;20566;-63
2023/06/23 01:36:31;;;;;;;510.17;482.77;;;24.60;90.30;;;;;;5045541;28;20205;-63
2023/06/23 01:39:03;;;;;;;487.47;462.27;;;24.60;90.30;;;;;;5045328;28;20256;-64
2023/06/23 01:41:37;;;;;;;449.10;426.37;;;24.60;90.40;;;;;;5027075;28;20217;-63
2023/06/23 01:44:13;;;;;;;397.27;378.40;;;24.50;90.60;;;;;;5057385;28;20210;-63
2023/06/23 01:46:50;;;;;;;366.17;349.30;;;24.40;90.70;;;;;;5043638;28;20202;-63
2023/06/23 01:49:23;;;;;;;333.30;318.27;;;24.30;90.80;;;;;;5032646;28;20640;-63
2023/06/23 01:51:52;;;;;;;372.63;355.23;;;24.30;91.00;;;;;;5049944;28;20210;-63
2023/06/23 01:54:21;;;;;;;337.47;321.90;;;24.30;91.00;;;;;;5031104;28;20204;-62
2023/06/23 01:56:49;;;;;;;353.87;337.40;;;24.30;91.00;;;;;;5040351;28;20680;-63
2023/06/23 01:59:18;;;;;;;368.13;350.80;;;24.40;91.00;;;;;;5027885;28;20194;-63
2023/06/23 02:01:47;;;;;;;412.67;393.07;;;24.40;90.90;;;;;;5025923;28;20713;-63
2023/06/23 02:04:16;;;;;;;378.67;360.63;;;24.40;90.80;;;;;;5031906;28;20205;-63
2023/06/23 02:06:46;;;;;;;419.63;399.50;;;24.40;90.80;;;;;;5049383;28;20206;-62
2023/06/23 02:09:21;;;;;;;407.80;387.60;;;24.30;90.70;;;;;;5034128;28;20245;-62
2023/06/23 02:11:49;;;;;;;456.20;432.50;;;24.40;90.70;;;;;;5046896;28;20215;-63
2023/06/23 02:14:19;;;;;;;471.03;447.80;;;24.40;90.70;;;;;;5029712;28;20203;-63
2023/06/23 02:16:49;;;;;;;441.07;419.03;;;24.40;90.60;;;;;;5024366;28;20202;-64
2023/06/23 02:19:18;;;;;;;454.53;431.83;;;24.30;90.50;;;;;;5046105;28;20191;-63
2023/06/23 02:21:46;;;;;;;415.13;394.20;;;24.30;90.50;;;;;;5061964;28;20562;-63
2023/06/23 02:24:14;;;;;;;498.70;472.90;;;24.30;90.50;;;;;;5027757;28;20726;-63
2023/06/23 02:26:47;;;;;;;491.20;464.80;;;24.30;90.50;;;;;;5046302;28;20692;-63
2023/06/23 02:29:17;;;;;;;448.60;425.40;;;24.20;90.50;;;;;;5051502;28;20199;-63
2023/06/23 02:31:44;;;;;;;425.13;404.40;;;24.20;90.50;;;;;;5039238;28;20232;-63
2023/06/23 02:34:12;;;;;;;378.23;360.53;;;24.10;90.50;;;;;;5049015;28;20598;-62
2023/06/23 02:36:49;;;;;;;378.13;360.17;;;24.10;90.50;;;;;;5050435;28;20195;-62
2023/06/23 02:39:20;;;;;;;372.47;354.37;;;24.20;90.70;;;;;;5051768;28;20198;-62
2023/06/23 02:41:54;;;;;;;410.20;390.80;;;24.10;90.60;;;;;;5049128;28;20214;-65
2023/06/23 02:44:34;;;;;;;424.03;402.77;;;24.10;90.60;;;;;;5040241;28;20217;-63
2023/06/23 02:47:03;;;;;;;402.93;383.20;;;24.10;90.60;;;;;;5054943;28;20288;-63
2023/06/23 02:49:32;;;;;;;427.80;406.87;;;24.10;90.50;;;;;;5053030;28;20277;-63
2023/06/23 02:52:01;;;;;;;428.50;407.30;;;24.10;90.50;;;;;;5036767;28;20260;-63
2023/06/23 02:54:36;;;;;;;400.53;380.90;;;24.10;90.60;;;;;;5047761;28;20582;-63
2023/06/23 02:57:05;;;;;;;464.57;441.53;;;24.10;90.70;;;;;;5047490;28;20680;-62
2023/06/23 02:59:34;;;;;;;437.30;414.10;;;24.00;90.70;;;;;;5040215;28;20206;-63
2023/06/23 03:02:06;;;;;;;458.03;435.33;;;24.10;90.70;;;;;;5065128;28;20273;-63
2023/06/23 03:04:38;;;;;;;450.73;428.77;;;24.10;90.60;;;;;;5032853;28;20214;-64
2023/06/23 03:07:06;;;;;;;480.10;455.87;;;24.10;90.60;;;;;;5053572;28;20223;-63
2023/06/23 03:09:33;;;;;;;468.07;444.93;;;24.10;90.50;;;;;;5034514;28;20206;-63
2023/06/23 03:12:01;;;;;;;449.17;427.07;;;24.00;90.50;;;;;;5067767;28;20280;-63
2023/06/23 03:14:28;;;;;;;327.43;312.83;;;24.00;90.50;;;;;;5054818;28;20233;-62
2023/06/23 03:17:09;;;;;;;362.93;346.23;;;24.00;90.50;;;;;;5062788;28;20725;-63
2023/06/23 03:20:00;;;;;;;323.63;309.00;;;23.90;90.70;;;;;;5049115;28;20198;-63
2023/06/23 03:22:36;;;;;;;326.23;311.43;;;23.90;90.80;;;;;;5054450;28;20209;-63
2023/06/23 03:25:11;;;;;;;328.13;312.97;;;23.90;90.80;;;;;;5050414;28;20301;-64
2023/06/23 03:27:40;;;;;;;367.90;351.10;;;23.90;90.80;;;;;;5044418;28;20197;-63
2023/06/23 03:30:21;;;;;;;399.80;380.40;;;23.90;90.80;;;;;;5048999;28;20209;-63
2023/06/23 03:32:51;;;;;;;400.93;381.10;;;23.90;90.70;;;;;;5042251;28;20285;-64
2023/06/23 03:35:24;;;;;;;360.93;344.30;;;23.90;90.70;;;;;;5031709;28;20202;-63
2023/06/23 03:37:59;;;;;;;318.60;303.73;;;23.80;90.60;;;;;;5027945;28;20642;-63
2023/06/23 03:40:31;;;;;;;317.50;303.10;;;23.80;90.60;;;;;;5048878;28;20318;-63
2023/06/23 03:43:24;;;;;;;314.93;300.63;;;23.80;90.70;;;;;;5043983;28;20230;-63
2023/06/23 03:45:57;;;;;;;297.87;284.73;;;23.80;90.90;;;;;;5045924;28;20645;-63
2023/06/23 03:48:28;;;;;;;315.80;301.33;;;23.80;90.80;;;;;;5048713;28;20211;-63
2023/06/23 03:50:57;;;;;;;310.70;296.17;;;23.70;90.80;;;;;;5040096;28;20265;-63
2023/06/23 03:53:27;;;;;;;285.97;272.90;;;23.80;90.80;;;;;;5041627;28;20649;-63
2023/06/23 03:55:56;;;;;;;297.00;283.83;;;23.80;90.90;;;;;;5038609;28;20277;-63
2023/06/23 03:58:25;;;;;;;322.23;307.47;;;23.70;91.00;;;;;;5042263;28;20198;-63
2023/06/23 04:00:55;;;;;;;374.73;357.50;;;23.80;91.20;;;;;;5045367;28;20199;-64
2023/06/23 04:03:23;;;;;;;364.73;347.53;;;23.80;91.00;;;;;;5030141;28;20294;-64
2023/06/23 04:05:52;;;;;;;325.60;310.30;;;23.80;90.90;;;;;;5044144;28;20213;-62
2023/06/23 04:08:21;;;;;;;317.97;303.50;;;23.80;91.00;;;;;;5046993;28;20234;-63
2023/06/23 04:10:50;;;;;;;336.57;320.73;;;23.80;91.10;;;;;;5027452;28;20210;-63
2023/06/23 04:13:19;;;;;;;320.47;306.37;;;23.90;91.10;;;;;;5046278;28;20266;-63
2023/06/23 04:15:49;;;;;;;324.60;309.77;;;23.90;91.20;;;;;;5044835;28;20532;-63
2023/06/23 04:18:18;;;;;;;318.63;304.33;;;23.90;91.20;;;;;;5047316;28;20203;-63
2023/06/23 04:20:46;;;;;;;328.33;313.80;;;24.00;91.30;;;;;;5044479;28;20199;-63
2023/06/23 04:23:15;;;;;;;342.63;327.00;;;24.00;91.30;;;;;;5048633;28;20198;-63
2023/06/23 04:25:45;;;;;;;328.10;313.17;;;24.10;91.30;;;;;;5047472;28;20208;-63
2023/06/23 04:28:15;;;;;;;384.27;366.67;;;24.10;91.30;;;;;;5044849;28;20202;-63
2023/06/23 04:30:44;;;;;;;434.00;412.80;;;24.10;91.30;;;;;;5046373;28;20276;-63
2023/06/23 04:33:11;;;;;;;411.47;392.13;;;24.20;91.30;;;;;;5039740;28;20227;-63
2023/06/23 04:35:39;;;;;;;373.00;356.17;;;24.20;91.20;;;;;;5044000;28;20214;-63
2023/06/23 04:38:14;;;;;;;365.77;349.03;;;24.30;91.20;;;;;;5046867;28;20202;-63
2023/06/23 04:40:51;;;;;;;376.93;359.57;;;24.30;91.20;;;;;;5042880;28;20632;-63
2023/06/23 04:43:26;;;;;;;404.93;386.60;;;24.30;91.30;;;;;;5042069;28;20597;-63
2023/06/23 04:45:58;;;;;;;402.70;383.33;;;24.40;91.30;;;;;;5045265;28;20216;-63
2023/06/23 04:48:35;;;;;;;389.43;371.23;;;24.50;91.30;;;;;;5041030;28;20672;-64
2023/06/23 04:51:06;;;;;;;414.43;394.17;;;24.50;91.30;;;;;;5046794;28;20211;-63
2023/06/23 04:53:38;;;;;;;410.60;391.30;;;24.60;91.30;;;;;;5048373;28;20261;-63
2023/06/23 04:56:07;;;;;;;420.90;401.30;;;24.60;91.30;;;;;;5055353;28;20289;-63
2023/06/23 04:58:39;;;;;;;425.27;405.53;;;24.70;91.30;;;;;;5050043;28;20195;-63
2023/06/23 05:01:10;;;;;;;421.80;401.67;;;24.80;91.30;;;;;;5046519;28;21216;-64
2023/06/23 05:03:39;;;;;;;465.40;441.87;;;24.90;91.20;;;;;;5043192;28;20591;-63
2023/06/23 05:06:08;;;;;;;464.63;441.33;;;25.00;91.00;;;;;;5040486;28;20199;-63
2023/06/23 05:08:36;;;;;;;471.70;448.00;;;25.10;90.90;;;;;;5047550;28;20194;-63
2023/06/23 05:11:06;;;;;;;486.87;462.27;;;25.20;90.80;;;;;;5044462;28;20380;-63
2023/06/23 05:13:35;;;;;;;454.37;431.67;;;25.20;90.80;;;;;;5044021;28;20228;-63
2023/06/23 05:16:04;;;;;;;481.27;457.20;;;25.30;90.70;;;;;;5029319;28;20651;-63
2023/06/23 05:18:33;;;;;;;491.37;466.63;;;25.40;90.60;;;;;;5039638;28;20261;-64
2023/06/23 05:21:01;;;;;;;506.83;480.27;;;25.50;90.50;;;;;;5042317;28;20562;-63
2023/06/23 05:23:35;;;;;;;506.83;479.67;;;25.60;90.40;;;;;;5041726;28;20217;-63
2023/06/23 05:26:20;;;;;;;496.80;470.57;;;25.70;90.30;;;;;;5046195;28;20201;-63
2023/06/23 05:28:49;;;;;;;507.63;481.03;;;25.80;90.20;;;;;;5036244;28;20252;-63
2023/06/23 05:31:19;;;;;;;545.87;516.23;;;25.90;90.10;;;;;;5045399;28;20214;-63
2023/06/23 05:33:50;;;;;;;542.40;513.47;;;26.10;90.00;;;;;;5042695;28;20271;-64
2023/06/23 05:36:20;;;;;;;580.20;546.63;;;26.20;89.60;;;;;;5047876;28;20271;-63
2023/06/23 05:38:50;;;;;;;558.73;528.07;;;26.50;89.30;;;;;;5044310;28;20537;-63
2023/06/23 05:41:17;;;;;;;678.73;635.40;;;26.60;88.80;;;;;;5040636;28;20664;-63
2023/06/23 05:43:45;;;;;;;678.80;635.33;;;26.90;88.20;;;;;;5044954;28;20203;-63
2023/06/23 05:46:14;;;;;;;803.13;747.47;;;27.10;87.10;;;;;;5039887;28;20204;-63
2023/06/23 05:48:48;;;;;;;669.90;627.50;;;27.30;86.10;;;;;;5043338;28;20210;-63
2023/06/23 05:51:26;;;;;;;695.70;651.43;;;27.40;85.70;;;;;;5044888;28;20226;-63
2023/06/23 05:53:57;;;;;;;670.40;628.47;;;27.60;85.90;;;;;;5043680;28;20269;-64
2023/06/23 05:56:53;;;;;;;724.77;676.70;;;27.80;85.70;;;;;;5030779;28;20505;-63
2023/06/23 05:59:25;;;;;;;775.77;724.53;;;28.00;85.60;;;;;;5038392;28;20217;-66
2023/06/23 06:01:57;;;;;;;785.93;732.70;;;28.20;85.10;;;;;;5045648;28;20203;-63
2023/06/23 06:04:28;;;;;;;795.37;740.23;;;28.40;84.30;;;;;;5041399;28;20231;-65
2023/06/23 06:06:58;;;;;;;815.03;758.50;;;28.50;83.60;;;;;;5043958;28;20186;-63
2023/06/23 06:09:29;;;;;;;806.93;750.37;;;28.60;83.00;;;;;;5037756;28;20203;-63
2023/06/23 06:11:58;;;;;;;859.83;799.33;;;28.60;82.80;;;;;;5031682;28;20191;-62
2023/06/23 06:14:27;;;;;;;838.30;779.97;;;28.60;82.80;;;;;;5044116;28;20202;-62
2023/06/23 06:16:56;;;;;;;905.10;839.30;;;28.50;82.90;;;;;;5041865;28;20195;-63
2023/06/23 06:19:27;;;;;;;904.10;837.27;;;28.50;82.90;;;;;;5038385;28;20535;-63
2023/06/23 06:21:56;;;;;;;846.63;787.40;;;28.40;82.50;;;;;;5038012;28;20655;-62
2023/06/23 06:24:24;;;;;;;867.67;807.00;;;28.50;82.50;;;;;;5042251;28;20584;-63
2023/06/23 06:26:56;;;;;;;875.70;814.17;;;28.50;82.40;;;;;;5042061;28;20289;-64
2023/06/23 06:29:24;;;;;;;874.50;816.07;;;28.70;81.90;;;;;;5048193;28;20650;-63
2023/06/23 06:31:53;;;;;;;890.03;828.00;;;28.80;81.30;;;;;;5041845;28;20207;-63
2023/06/23 06:34:23;;;;;;;936.53;871.27;;;28.90;80.30;;;;;;5044110;28;20287;-63
2023/06/23 06:36:53;;;;;;;1032.57;954.73;;;29.00;79.20;;;;;;5049212;28;20210;-63
2023/06/23 06:39:21;;;;;;;956.63;888.40;;;29.20;76.40;;;;;;5041667;28;20229;-63
2023/06/23 06:41:50;;;;;;;1042.27;958.63;;;29.30;76.00;;;;;;5044353;28;20352;-63
2023/06/23 06:44:17;;;;;;;970.30;899.37;;;29.50;73.60;;;;;;5039666;28;20238;-63
2023/06/23 06:46:45;;;;;;;1117.50;999.90;;;29.50;73.60;;;;;;5038651;28;20347;-64
2023/06/23 06:49:14;;;;;;;1109.90;999.90;;;29.50;71.30;;;;;;5043511;28;20204;-63
2023/06/23 06:51:42;;;;;;;1151.90;999.90;;;29.50;71.10;;;;;;5031702;28;20198;-64
2023/06/23 06:54:10;;;;;;;1039.37;960.80;;;29.40;70.30;;;;;;5041251;28;20215;-63
2023/06/23 06:56:41;;;;;;;1041.07;959.73;;;29.30;71.60;;;;;;5046510;28;20203;-66
2023/06/23 06:59:08;;;;;;;1074.67;988.23;;;29.30;72.90;;;;;;5045325;28;20195;-63
2023/06/23 07:01:36;;;;;;;1124.07;999.90;;;29.30;72.10;;;;;;5045409;28;20203;-63
2023/06/23 07:04:05;;;;;;;1111.57;999.90;;;29.40;71.50;;;;;;5047118;28;20218;-62
2023/06/23 07:06:34;;;;;;;1083.27;996.47;;;29.40;71.10;;;;;;5041941;28;20195;-63
2023/06/23 07:09:01;;;;;;;1106.33;999.90;;;29.40;71.40;;;;;;5047403;28;20282;-63
2023/06/23 07:11:30;;;;;;;1179.93;999.90;;;29.50;71.00;;;;;;5044483;28;20241;-63
2023/06/23 07:13:57;;;;;;;1166.13;999.90;;;29.60;70.30;;;;;;5046037;28;20210;-63
2023/06/23 07:16:30;;;;;;;1035.77;955.07;;;29.60;69.70;;;;;;5045013;28;20245;-63
2023/06/23 07:18:57;;;;;;;1165.10;999.90;;;29.70;70.30;;;;;;5044974;28;20211;-63
2023/06/23 07:21:24;;;;;;;1106.93;999.90;;;29.70;70.00;;;;;;5048705;28;20198;-66
2023/06/23 07:23:51;;;;;;;1091.07;997.37;;;29.70;69.30;;;;;;5045802;28;20239;-63
2023/06/23 07:26:18;;;;;;;1092.83;999.90;;;29.70;69.50;;;;;;5044624;28;20358;-64
2023/06/23 07:28:45;;;;;;;1167.80;999.90;;;29.70;70.30;;;;;;5046635;28;20236;-63
2023/06/23 07:31:13;;;;;;;1112.40;999.90;;;29.70;69.20;;;;;;5046528;28;20725;-63
2023/06/23 07:33:41;;;;;;;1166.87;999.90;;;29.60;69.10;;;;;;5048062;28;20223;-63
2023/06/23 07:36:08;;;;;;;1131.00;999.90;;;29.60;69.30;;;;;;5047427;28;20222;-63
2023/06/23 07:38:35;;;;;;;1160.27;999.90;;;29.60;68.20;;;;;;5048421;28;20281;-63
2023/06/23 07:41:03;;;;;;;1150.13;999.90;;;29.60;68.50;;;;;;5051156;28;20221;-63
2023/06/23 07:43:30;;;;;;;1113.20;999.90;;;29.60;68.80;;;;;;5051949;28;20301;-63
2023/06/23 07:45:57;;;;;;;1097.90;999.90;;;29.60;68.70;;;;;;5052032;28;20210;-63
2023/06/23 07:48:24;;;;;;;1118.87;999.90;;;29.70;69.30;;;;;;5049398;28;20217;-63
2023/06/23 07:50:51;;;;;;;1105.87;999.90;;;29.70;69.70;;;;;;5044781;28;20195;-63
2023/06/23 07:53:19;;;;;;;1098.40;999.90;;;29.70;69.70;;;;;;5046593;28;20735;-63
2023/06/23 07:55:46;;;;;;;1118.70;999.90;;;29.80;69.80;;;;;;5046829;28;20286;-64
2023/06/23 07:58:13;;;;;;;1112.50;999.90;;;29.90;69.30;;;;;;5043788;28;20191;-63
2023/06/23 08:00:40;;;;;;;1157.70;999.90;;;29.90;69.70;;;;;;5043650;28;20183;-62
2023/06/23 08:03:07;;;;;;;1139.93;999.90;;;29.90;69.20;;;;;;5048384;28;20207;-63
2023/06/23 08:05:34;;;;;;;1083.67;997.20;;;29.90;69.90;;;;;;5047773;28;20226;-63
2023/06/23 08:08:01;;;;;;;1127.20;999.90;;;30.00;70.10;;;;;;5047291;28;20202;-63
2023/06/23 08:10:28;;;;;;;1124.93;999.90;;;30.00;69.80;;;;;;5043542;28;20234;-63
2023/06/23 08:12:56;;;;;;;1110.93;999.90;;;30.10;69.80;;;;;;5043724;28;20226;-63
2023/06/23 08:15:23;;;;;;;1115.43;999.90;;;30.20;69.80;;;;;;5047714;28;20206;-63
2023/06/23 08:17:51;;;;;;;1090.60;998.03;;;30.40;69.70;;;;;;5045175;28;20205;-63
2023/06/23 08:20:18;;;;;;;1082.83;993.53;;;30.60;69.60;;;;;;5042230;28;20199;-63
2023/06/23 08:22:46;;;;;;;1121.07;999.90;;;30.80;68.90;;;;;;5048017;28;20232;-63
2023/06/23 08:25:14;;;;;;;1156.00;999.90;;;31.10;68.30;;;;;;5046955;28;20585;-63
2023/06/23 08:27:41;;;;;;;1273.37;999.90;;;31.20;67.70;;;;;;5043377;28;20536;-63
2023/06/23 08:30:09;;;;;;;1159.40;999.90;;;31.30;66.10;;;;;;5029478;28;20198;-63
2023/06/23 08:32:36;;;;;;;1153.47;999.90;;;31.40;66.40;;;;;;5046239;28;20226;-63
2023/06/23 08:35:03;;;;;;;1232.53;999.90;;;31.60;67.20;;;;;;5048326;28;20523;-63
2023/06/23 08:37:30;;;;;;;1214.43;999.90;;;31.80;66.10;;;;;;5048116;28;20203;-63
2023/06/23 08:39:59;;;;;;;1208.83;999.90;;;32.00;65.20;;;;;;5047056;28;20241;-64
2023/06/23 08:42:26;;;;;;;1242.70;999.90;;;32.10;64.70;;;;;;5045309;28;20580;-64
2023/06/23 08:44:58;;;;;;;1202.77;999.90;;;32.30;63.50;;;;;;5043612;28;20199;-63
2023/06/23 08:47:29;;;;;;;1208.20;999.90;;;32.50;63.80;;;;;;5045141;28;20210;-63
2023/06/23 08:49:57;;;;;;;1195.80;999.90;;;32.70;63.60;;;;;;5044053;28;20215;-63
2023/06/23 08:52:25;;;;;;;1333.97;999.90;;;32.90;63.50;;;;;;5028123;28;20592;-63
2023/06/23 08:54:52;;;;;;;1335.33;999.90;;;33.10;60.30;;;;;;5045974;28;20570;-64
2023/06/23 08:57:20;;;;;;;1248.60;999.90;;;33.10;60.10;;;;;;5045268;28;20583;-63
2023/06/23 08:59:47;;;;;;;1462.50;999.90;;;33.20;60.50;;;;;;5046799;28;20210;-63
2023/06/23 09:02:14;;;;;;;1271.47;999.90;;;33.20;59.70;;;;;;5045749;28;20210;-63
2023/06/23 09:04:41;;;;;;;1291.10;999.90;;;33.20;60.80;;;;;;5043083;28;20588;-63
2023/06/23 09:07:08;;;;;;;1225.20;999.90;;;33.10;60.20;;;;;;5023437;28;20226;-63
2023/06/23 09:09:35;;;;;;;1368.30;999.90;;;33.20;60.80;;;;;;5044748;28;20219;-64
2023/06/23 09:12:03;;;;;;;1515.20;999.90;;;33.30;60.00;;;;;;5039223;28;20633;-63
2023/06/23 09:14:30;;;;;;;1561.33;999.90;;;33.40;58.00;;;;;;5045656;28;20301;-64
2023/06/23 09:16:58;;;;;;;1247.17;999.90;;;33.40;56.50;;;;;;5048365;28;20195;-63
2023/06/23 09:19:26;;;;;;;1558.60;999.90;;;33.40;57.40;;;;;;5042345;28;20310;-63
2023/06/23 09:21:55;;;;;;;1315.10;999.90;;;33.40;57.20;;;;;;5038495;28;20195;-63
2023/06/23 09:24:22;;;;;;;1558.17;999.90;;;33.50;56.00;;;;;;5044266;28;20254;-64
2023/06/23 09:26:51;;;;;;;1320.13;999.90;;;33.60;55.10;;;;;;5043277;28;20730;-63
2023/06/23 09:29:24;;;;;;;1239.10;999.90;;;33.70;55.90;;;;;;5045351;28;20585;-63
2023/06/23 09:31:52;;;;;;;1309.97;999.90;;;33.70;56.70;;;;;;5045048;28;20573;-64
2023/06/23 09:34:29;;;;;;;1255.73;999.90;;;33.80;56.50;;;;;;5040516;28;20215;-63
2023/06/23 09:37:08;;;;;;;1248.70;999.90;;;33.90;56.20;;;;;;5041717;28;20255;-64
2023/06/23 09:39:37;;;;;;;1218.90;999.90;;;34.00;56.40;;;;;;5042264;28;20198;-63
2023/06/23 09:42:06;;;;;;;1317.40;999.90;;;34.10;56.80;;;;;;5038295;28;20203;-63
2023/06/23 09:44:38;;;;;;;1303.07;999.90;;;34.20;55.30;;;;;;5045805;28;20218;-63
2023/06/23 09:47:06;;;;;;;1228.40;999.90;;;34.20;55.10;;;;;;5040083;28;20199;-63
2023/06/23 09:49:43;;;;;;;1235.03;999.90;;;34.20;55.20;;;;;;5040715;28;20278;-63
2023/06/23 09:52:23;;;;;;;1270.57;999.90;;;34.20;55.70;;;;;;5046242;28;20194;-64
2023/06/23 09:54:50;;;;;;;1395.63;999.90;;;34.30;54.90;;;;;;5029819;28;20229;-64
2023/06/23 09:57:19;;;;;;;1263.97;999.90;;;34.40;53.40;;;;;;5043672;28;20910;-64
2023/06/23 09:59:52;;;;;;;1514.13;999.90;;;34.40;54.10;;;;;;5023257;28;20195;-64
2023/06/23 10:02:29;;;;;;;1732.47;999.90;;;34.40;53.40;;;;;;5045838;28;20505;-64
2023/06/23 10:05:02;;;;;;;1212.97;999.90;;;34.30;53.50;;;;;;5041189;28;20660;-63
2023/06/23 10:07:31;;;;;;;1267.80;999.90;;;34.20;53.30;;;;;;5038424;28;20194;-63
2023/06/23 10:10:04;;;;;;;1215.13;999.90;;;34.20;53.70;;;;;;5040969;28;20218;-63
2023/06/23 10:12:48;;;;;;;1477.83;999.90;;;34.20;53.90;;;;;;5039618;28;20586;-64
2023/06/23 10:15:15;;;;;;;1208.50;999.90;;;34.40;53.40;;;;;;5045423;28;20210;-64
2023/06/23 10:17:43;;;;;;;1623.07;999.90;;;34.50;53.70;;;;;;5044839;28;20649;-64
2023/06/23 10:20:11;;;;;;;1464.43;999.90;;;34.50;52.90;;;;;;5044521;28;20190;-64
2023/06/23 10:22:40;;;;;;;1290.27;999.90;;;34.50;52.50;;;;;;5043394;28;20285;-63
2023/06/23 10:25:10;;;;;;;1285.90;999.90;;;34.30;52.60;;;;;;5043770;28;20238;-63
2023/06/23 10:27:40;;;;;;;1237.43;999.90;;;34.20;53.40;;;;;;5044535;28;20221;-63
2023/06/23 10:30:10;;;;;;;1257.27;999.90;;;34.20;53.80;;;;;;5047880;28;20190;-64
2023/06/23 10:32:40;;;;;;;1285.83;999.90;;;34.30;54.00;;;;;;5046969;28;20206;-64
2023/06/23 10:35:10;;;;;;;1345.10;999.90;;;34.40;53.70;;;;;;5047478;28;20223;-63
2023/06/23 10:37:38;;;;;;;1371.07;999.90;;;34.50;51.70;;;;;;5044142;28;20699;-62
2023/06/23 10:40:16;;;;;;;1307.57;999.90;;;34.50;51.00;;;;;;5055164;28;20695;-63
2023/06/23 10:42:48;;;;;;;1276.00;999.90;;;34.40;51.00;;;;;;5046240;28;20202;-64
2023/06/23 10:45:16;;;;;;;1434.37;999.90;;;34.30;52.50;;;;;;5043209;28;20260;-63
2023/06/23 10:47:44;;;;;;;1542.53;999.90;;;34.40;52.00;;;;;;5044439;28;20226;-64
2023/06/23 10:50:13;;;;;;;1347.90;999.90;;;34.30;50.80;;;;;;5047097;28;20275;-64
2023/06/23 10:52:42;;;;;;;1242.47;999.90;;;34.20;51.30;;;;;;5044280;28;20236;-63
2023/06/23 10:55:41;;;;;;;1276.57;999.90;;;34.20;52.90;;;;;;5049710;28;20226;-64
2023/06/23 10:58:28;;;;;;;1226.03;999.90;;;34.20;52.60;;;;;;5050302;28;20207;-63
2023/06/23 11:00:55;;;;;;;1252.53;999.90;;;34.20;52.30;;;;;;5044462;28;20319;-64
2023/06/23 11:03:35;;;;;;;1273.77;999.90;;;34.30;52.30;;;;;;5048326;28;20214;-64
2023/06/23 11:06:10;;;;;;;1464.47;999.90;;;34.50;52.60;;;;;;5050618;28;20199;-64
2023/06/23 11:08:39;;;;;;;1441.07;999.90;;;34.50;52.40;;;;;;5040845;28;20209;-64
2023/06/23 11:11:11;;;;;;;1555.20;999.90;;;34.50;50.90;;;;;;5048963;28;20214;-64
2023/06/23 11:13:49;;;;;;;1289.20;999.90;;;34.50;52.10;;;;;;5045363;28;20311;-64
2023/06/23 11:16:17;;;;;;;1317.83;999.90;;;34.50;51.70;;;;;;5045130;28;20202;-63
2023/06/23 11:18:53;;;;;;;1245.20;999.90;;;34.50;51.30;;;;;;5043473;28;20229;-63
2023/06/23 11:21:29;;;;;;;1247.23;999.90;;;34.50;51.30;;;;;;5043858;28;20285;-64
2023/06/23 11:24:19;;;;;;;1154.23;999.90;;;34.50;52.10;;;;;;5043247;28;20242;-63
2023/06/23 11:26:55;;;;;;;1181.57;999.90;;;34.70;52.10;;;;;;5043219;28;20222;-63
2023/06/23 11:29:23;;;;;;;1254.78;999.90;;;35.00;51.80;;;;;;5049823;28;20198;-63
2023/06/23 11:32:11;;;;;;;1253.82;999.90;;;35.20;50.80;;;;;;5050276;28;20649;-63
2023/06/23 11:34:57;;;;;;;1325.70;999.90;;;35.50;49.70;;;;;;5047779;28;20214;-63
2023/06/23 11:37:31;;;;;;;1173.25;999.90;;;35.70;50.00;;;;;;5047229;28;20195;-61
2023/06/23 11:39:58;;;;;;;1223.78;999.90;;;35.70;49.80;;;;;;5047140;28;20293;-61
2023/06/23 11:42:26;;;;;;;1217.05;999.90;;;35.90;50.00;;;;;;5042753;28;20273;-61
2023/06/23 11:44:57;;;;;;;1201.07;999.90;;;36.10;50.30;;;;;;5044000;28;20222;-62
2023/06/23 11:47:25;;;;;;;1193.30;999.90;;;36.20;49.00;;;;;;5048305;28;20233;-61
2023/06/23 11:49:56;;;;;;;1289.97;999.90;;;36.20;47.50;;;;;;5061992;28;20510;-64
2023/06/23 11:52:24;;;;;;;1196.32;999.90;;;36.10;46.90;;;;;;5047826;28;20203;-61
2023/06/23 11:54:51;;;;;;;1267.35;999.90;;;35.80;47.30;;;;;;5045978;28;20616;-63
2023/06/23 11:57:21;;;;;;;1298.10;999.90;;;35.50;48.30;;;;;;5044835;28;20223;-65
2023/06/23 11:59:52;;;;;;;1441.45;999.90;;;35.30;48.50;;;;;;5047157;28;20604;-64
2023/06/23 12:02:20;;;;;;;1192.43;999.90;;;35.20;48.40;;;;;;5044468;28;20191;-63
2023/06/23 12:04:49;;;;;;;1180.77;999.90;;;35.10;49.60;;;;;;5049287;28;20245;-63
2023/06/23 12:07:16;;;;;;;1166.60;999.90;;;35.20;50.30;;;;;;5050820;28;20230;-63
2023/06/23 12:09:44;;;;;;;1165.03;999.90;;;35.30;50.50;;;;;;5031201;28;20316;-63
2023/06/23 12:12:11;;;;;;;1172.15;999.90;;;35.50;50.30;;;;;;5048937;28;20218;-64
2023/06/23 12:14:43;;;;;;;1315.53;999.90;;;35.70;49.60;;;;;;5048825;28;20206;-61
2023/06/23 12:17:12;;;;;;;1257.30;999.90;;;35.70;48.70;;;;;;5046116;28;20234;-63
2023/06/23 12:19:42;;;;;;;1181.15;999.90;;;35.70;48.50;;;;;;5045916;28;20268;-60
2023/06/23 12:22:17;;;;;;;1212.53;999.90;;;35.80;48.50;;;;;;5044508;28;20574;-61